Matador, Texas
Current Conditions -  °F | °C
As of 2:53 AM on Monday 22 Dec 2014 (Local Time) from KCDS Reporting Station
Clear Clear  
Wind Chill: 33°   Ceiling: Unl
Heat Index: 39°   Visibility: 10mi
Dew Point: 34°   Wind: 9mph
Humidity: 82%   Direction: 320°NW
Pressure: 29.53"   Gusts: NA
Location:  34.01°N, 100.82°W
Report Text: KCDS 220853Z AUTO 32008KT 10SM CLR 04/01 A2953 RMK AO2 SLP993 T00390011 56004
Loading
Personal Weather Stations






























Interactive Weather Map New forecast layout! Learn more

10-Day Weather Forecast

Advertisements
Track Severe Weather on mobile